Jockey profileS. B. Kirrane

Statistics
Race TypeStartsWins2nds3rds
Flat Turf15718715
Total15718715
Future Rides
DateCourseTimeRaceHorseDistance
18-09-19YAR15:15DANNY & PEGGY WRIGHT MEMORIAL HANDICAP (2)Thegreatestshowman0m 5f
Results
DateCourseHorsePosBtnWgtDistGoingSPReplay
14-09-19BAT C6Hc 2.78KAmor Kethley3/154.209-16FFirm16/1
09-09-19BRI C6Hc 2.78KLimerick Lord5/103.558-121MGood4/1
07-09-19ASC C2Hc 18.7KMagical Rideur/149.379-06FGd/Frm11/1
07-09-19ASC C3Hc 9.7KThegreatestshowman4/151.209-35FGd/Frm14/1
06-09-19KEM C4Hc 6.47KSpencers Son6/715.258-131MStd12/1
05-09-19CHC C4Hc 5.69KThaqaffa6/614.759-61M 6FStd12/1
05-09-19LIN C6Hc 2.78KLittle Miss Kodi13/1710.509-67FGd/Frm10/1
04-09-19BAT C5Hc 3.43KDiamond Shower4/43.208-111MGd/Frm7/1
03-09-19KEM C6Hc 3.11KGrace Plunkett9/108.558-136FSlow6/1
01-09-19BRI C6Hc 2.78KLimerick Lord2/91.509-11MGood14/1
31-08-19CHC C6Hc 3.11KBlessed to Empress1/82.009-107FStd10/1
28-08-19LIN C6Hc 2.78KNapping1/102.009-36FGd/Frm5/1
26-08-19CHP C6 2.78KDiamond Shower1/53.508-86FGd/Frm11/10
24-08-19CHC C4Hc 6.02KYou Never Can Tell8/858.109-77FStd25/1
23-08-19GOO C5Hc 4.79KEnglishman7/86.409-26FGd/Frm10/1
20-08-19YAR C6Hc 2.78KTallulah's Quest10/147.729-31MFirm16/1
16-08-19NWB C5Hc 3.43KClub Tropicana9/1017.309-81M 1FGd/Sft12/1
15-08-19YAR C6Hc 2.78KRed Archangel4/132.759-31MGd/Frm12/1
14-08-19SAL C5Hc 4.4KJean Valjean3/64.009-67FSoft9/2
14-08-19SAL C5Hc 4.4KAir of York7/106.229-77FSoft10/1
13-08-19NOT C6Hc 3.23KReshaan12/1320.308-101M 2FGd/Sft20/1
12-08-19WOL C6G 2.78KDynamighty3/82.258-115FStd12/1
12-08-19WOL C6Hc 2.78KSecret Magic8/1212.708-67FStd16/1
11-08-19LEI C5 3.49KBoxatricks6/820.009-77FGd/Sft8/1
10-08-19LIN C5Hc 3.43KMagical Ride1/77.0010-06FGd/Frm6/5
09-08-19BRI C4Hc 8.02KBig Lachie4/93.459-76FGd/Frm6/1
09-08-19CHC C6Hc 3.43KNineteenrbo'malley10/1070.108-82MSlow66/1
09-08-19BRI C6Hc 2.78KNapping3/67.209-66FGd/Frm4/1
07-08-19BRI C6Hc 2.78KSeafaring Girl9/159.229-17FGood12/1
07-08-19BRI C6Hc 2.78KHollaback Girl5/54.509-35FGood4/1
03-08-19LIN C6G 2.78KMargaretha7/1013.508-121MFirm66/1
03-08-19LIN C6Hc 2.78KTallulah's Quest11/1318.759-51MFirm12/1
03-08-19LIN C5Hc 3.43KMagical Ride1/119.009-117FFirm13/8
01-08-19EPS C5Hc 4.53KDream Magic7/99.709-91M 2FGd/Frm25/1
01-08-19EPS C4Hc 9.34KMaterial Girl3/71.509-27FGd/Frm4/1
27-07-19CHS C4Hc 6.08KFour Kingdoms5/129.258-111M 5FHeavy14/1
26-07-19CHP C6Hc 2.78KSeafaring Girl1/132.008-77FGd/Frm6/1
23-07-19WOL C6Hc 2.78KHollaback Girl4/82.559-55FStd16/1
20-07-19NWB C2G 125KDynamighty20/2417.308-55FGd/Sft100/1
19-07-19HAY C5Hc 4.85KMoxy Mares2/71.259-121MGd/Sft6/1
16-07-19NOT C6Hc 3.23KTelekinetic8/1312.108-81M 2FGood8/1
12-07-19CHP C6Hc 2.78KThe Wire Flyer4/95.858-111M 4FFirm10/1
12-07-19CHP C6Hc 2.78KSilvington10/1310.308-127FFirm50/1
10-07-19YAR C5G 3.43KDynamighty5/86.508-115FGood9/1
10-07-19YAR C6Hc 2.78KMagical Ride4/71.9510-51MGood10/11
06-07-19LEI C5Hc 4.08KNostrovia6/108.029-66FGd/Frm10/1
06-07-19LEI C6Hc 3.49KTakeonefortheteam8/145.659-121MGood7/2
05-07-19DON C5Hc 3.43KGas Monkey1/96.009-61M 4FGd/Frm8/13
04-07-19YAR C6Hc 2.78KSussudio6/106.259-35FGood6/1
04-07-19YAR C6Hc 2.78KMagical Ride1/130.2010-27FGood8/13
04-07-19YAR C5Hc 3.43KOud Metha Bridge6/85.709-111MGood6/1
04-07-19YAR C5Hc 3.43KBrittanic4/62.809-91M 3FGood8/1
03-07-19KEM C5G 3.88KRide and Prejudice7/823.909-07FSlow125/1
03-07-19KEM C5Hc 3.75KGustavo Fring9/1112.609-126FSlow10/1
02-07-19BRI C6Hc 2.78KApprove the Dream3/83.759-37FGood7/2
29-06-19WND C6Hc 3.11KMiss Green Dream3/155.008-81M 3FGd/Frm4/1
28-06-19YAR C5Hc 3.75KCookupastorm3/83.258-135FGd/Frm12/1
28-06-19YAR C6Hc 3.11KRed Archangel2/141.758-131M 2FGd/Frm5/1
28-06-19YAR C6Hc 3.11KSpanish Mane9/1411.709-61MGd/Frm20/1
27-06-19NMJ C4 5.82KExning Queen6/713.009-07FGood100/1
26-06-19KEM C6Hc 3.11KSeafaring Girl6/137.168-127FStd16/1
25-06-19NWB C5Hc 3.75KGas Monkey1/148.009-101M 3FGood11/2
22-06-19RED C5G 4.53KCominginonmonday9/127.119-56FGood33/1
21-06-19NMJ C5Hc 4.53KThe Throstles6/1211.209-71MGood10/1
17-06-19WND C6Hc 3.11KBriac13/139.808-71M 3FGood16/1
16-06-19SAL C6Hc 3.83KStallone3/81.2010-46FSoft9/4
16-06-19SAL C5Hc 4.09KMaterial Girl4/86.509-47FSoft5/1
12-06-19YAR C6Hc 3.11KRed Archangel4/1210.608-121M 2FHeavy7/1
12-06-19YAR C4Hc 5.53KOud Metha Bridge1/71.258-111MHeavy3/1
12-06-19YAR C6Hc 3.11KLulu Star8/1413.508-131M 3FHeavy14/1
12-06-19YAR C6Hc 3.11KBoxatricks3/82.028-101MHeavy5/1
08-06-19NMJ C4G 5.82KExning Queen9/1214.028-117FGd/Frm100/1
07-06-19HAY C4Hc 7.12KMaterial Girl2/51.759-07FSoft3/1
07-06-19HAY C5Hc 4.85KCaptain Scott12/1224.009-71M 2FSoft12/1
05-06-19NOT C6Hc 3.56KPoppy Jag8/156.028-116FGood33/1
05-06-19NOT C6Hc 3.56KCoastal Cyclone5/152.529-16FGood9/1
01-06-19DON C5G 3.75KCominginonmonday5/610.459-55FGd/Frm50/1
31-05-19WOL C6Hc 3.11KThe Third Man8/118.979-71M 1FStd40/1
30-05-19YAR C6Hc 3.11KOceanus9/913.258-111M 2FGd/Frm20/1
30-05-19YAR C5G 3.75KEmojie8/1218.7510-01MGd/Frm100/1
30-05-19YAR C6Hc 3.11KMiss Green Dream2/111.508-131M 3FGd/Frm11/1
27-05-19CHC C7Hc 2.91KCasey Banter1/154.009-41MStd/Slow7/1
22-05-19YAR C5Hc 3.75KOud Metha Bridge2/60.109-61MGood2/1
20-05-19LEI C5Hc 3.82KCookupastorm9/1221.259-77FGd/Frm14/1
18-05-19DON C5Hc 3.75KCold Harbour3/128.008-121M 4FGd/Frm9/2
16-05-19NMJ C5Hc 4.53KMaterial Girl6/115.259-71MGood10/1
11-05-19NOT C6Hc 3.23KSea Shack4/121.809-31MSoft9/1
06-05-19BEV C6Hc 3.11KStallone9/1210.4510-07FGd/Sft5/1
04-05-19THI C5 4.53KNineteenrbo'malley4/66.0010-01M 4FGood50/1
04-05-19THI C4 6.47KMaterial Girl1/71.509-07FGood9/2
02-05-19SOU C5Hc 3.75KKatie Gale6/719.759-31M 6FStd6/1
01-05-19SOU C6G 3.11KAtalanta Queen1/130.209-27FStd14/1
30-04-19YAR C6Hc 3.11KOud Metha Bridge1/130.209-81MGd/Frm9/2
29-04-19WND C5Hc 3.75KBallesteros14/1513.958-35FGd/Frm33/1
21-04-19SOU C5G 3.75KHollaback Girl2/61.259-05FStd16/1
13-04-19WOL C6Hc 3.11KUbla5/120.629-41M 1FStd/Slow9/2
13-04-19WOL C6Hc 3.11KMiss Green Dream5/113.558-91M 4FStd/Slow25/1
11-04-19CHC C6G 3.11KCasey Banter3/132.009-01MSlow16/1
10-04-19LIN C5G 3.75KWinter Snowdrop4/432.009-01M 4FSlow100/1
06-04-19WOL C6Hc 3.11KMukha Magic5/123.679-71M 1FStd5/1
03-04-19KEM C4Hc 6.47KMovie Set11/1163.859-71M 3FStd33/1
28-03-19WOL C6Hc 3.11KUbla9/124.709-131M 1FStd7/2
27-03-19LIN C6Hc 3.11KAmy Kane11/116.308-71M 2FStd50/1
25-03-19WOL C6Hc 3.11KUbla1/110.759-61M 1FStd6/1
14-03-19SOU C5Hc 3.75KAnnie Fior8/1017.008-101MFast33/1
13-03-19KEM C6Hc 3.11KMochalov12/148.129-67FStd7/1
09-03-19KEM C7Hc 2.59KToolatetodelegate9/118.509-66FSlow16/1
07-03-19CHC C5Hc 5.18KClub Tropicana10/147.009-41M 2FSlow66/1
07-03-19CHC C5Hc 5.18KStrategic Heights12/127.358-126FSlow66/1
07-03-19CHC C6Hc 3.11KUbla5/142.209-81MSlow5/1
04-03-19WOL C5G 2.91KSussudio4/101.958-116FStd20/1
27-02-19SOU C2Hc 12.5KRobero5/96.358-107FFast33/1
20-02-19WOL C7Hc 1.94KToolatetodelegate7/133.059-76FSlow50/1
04-02-19WOL C6Hc 3.11KCaptain Marmalade7/116.908-117FStd40/1
15-10-18GOW Hc 10KFootstepsintime11/1510.308-87FHeavy10/1
03-10-18COR 12KSally Browne13/1719.359-01MGood200/1
29-09-18NAV Hc 12KHasselnott1/161.759-131MGood9/1
23-09-18HAM C6Hc 3.23KFootstepsintime3/111.508-66FHeavy9/2
08-09-18NAV 14.5KSally Browne12/1521.479-01MGood100/1
04-09-18NAA Hc 10KFootstepsintime12/194.578-136FGood20/1
31-08-18CUR Hc 13KBercasa8/154.958-47FGd/Sft16/1
26-08-18CUR Hc 11KBaby Power7/306.558-46FGd/Sft33/1
13-08-18AYR C5Hc 3.82KSteelriver9/919.708-66FGd/Sft12/1
13-08-18AYR C6Hc 3.49KJan Steen7/104.708-107FGd/Sft10/1
06-08-18CUR Hc 11KSteelriver13/303.778-116FGd/Frm25/1
27-07-18DOW Hc 11KPercy B Shelley7/104.979-71M 5FGd/Sft8/1
12-07-18DUN 10.5KSteelriver3/116.009-61MSlow25/1
23-06-18DOW Hc 10KJan Steen7/1315.758-97FGd/Frm20/1
19-06-18SLI 10.5KSbraase3/100.708-121M 3FGd/Sft14/1
05-05-18COR Hc 10.5KFootstepsintime1/140.508-66FHeavy16/1
05-05-18COR Hc 12KBrokopondo14/1438.409-91MHeavy20/1
22-04-18NAV Hc 25KBainne11/1122.328-116FSoft12/1
28-03-18DUN Hc 12KSteelriver5/69.509-95FSlow22/1
28-03-18DUN Hc 10KJan Steen11/148.258-97FSlow11/1
09-03-18DUN Hc 11KPercy B Shelley7/127.309-71M 4FSlow33/1
16-02-18DUN Hc 25KSteelriver8/819.758-136FSlow40/1
16-02-18DUN Hc 10KSbraase10/135.129-41MSlow25/1
12-01-18NWC C4Hc 5.53KSteelriver9/1013.529-77FStd/Slow33/1
24-11-17DUN Hc 12KBrokopondo12/149.709-91M 3FStd40/1
03-11-17DUN 10KZippy7/133.208-101MStd20/1
04-10-17NAA Hc 11KFootstepsintime12/1414.708-41MGd/Sft40/1
29-09-17DUN Hc 11KSbraase12/145.429-121MStd25/1
06-09-17GOW Hc 10KDont Have It Then12/1617.628-127FSoft8/1
27-08-17CUR Hc 59KHasselnott14/276.208-41MGd/Sft14/1
20-08-17CUR Hc 11KDont Have It Then13/266.948-96FSoft16/1
18-08-17DUN Hc 10.5KDont Have It Then5/144.059-71MStd25/1
07-08-17CUR Hc 11KSbraase30/3315.179-116FGd/Frm25/1
07-08-17CUR Hc 11KBainne7/164.1010-51MGd/Frm7/1
01-08-17GAL Hc 15KSbraase16/1611.159-47FGd/Sft25/1
26-07-17NAA Hc 10KSixtyfiveroses6/132.458-121MGood6/1
28-06-17NAA Hc 11KSixtyfiveroses6/166.508-121M 2FGd/Sft20/1
13-05-17CUR Hc 11KBainne1/210.1010-27FGood9/1
12-04-17DUNIllusive Force5/510.458-101MStd28/1
16-03-17DUN Hc 10KZippy12/146.379-51MStd40/1
17-02-17DUN Hc 10KDont Have It Then13/149.0510-05FStd22/1
10-02-17DUN Hc 10KDont Have It Then13/148.499-87FSlow50/1
27-01-17DUNHavelock Ellis14/1424.908-91M 3FStd25/1

Show Less

Betslip

Loading

Select any odd to add a bet

Single Bets

Enter a stake to place a bet

Total Stake: 

This video is playing in Picture-In-Picture. Click to Exit.
This site uses cookies. By continuing to browse the site you are agreeing to our use of cookies.